Time;durP1;ratioP1;P1;durP2;ratioP2;P2;SDS_P1;SDS_P2;PMS_P1;PMS_P2;Temp;Humidity;BMP_temperature;BMP_pressure;BME280_temperature;BME280_humidity;BME280_pressure;Samples;Min_cycle;Max_cycle;Signal;HPM_P1;HPM_P2
2022/06/30 00:02:01;;;;;;;4.80;2.95;;;19.20;76.10;;;;;;5047985;28;20029;-49
2022/06/30 00:04:27;;;;;;;3.75;2.60;;;19.10;76.20;;;;;;5032698;28;20033;-46
2022/06/30 00:06:53;;;;;;;5.75;2.97;;;19.10;76.40;;;;;;5031186;28;20018;-48
2022/06/30 00:09:19;;;;;;;6.30;3.67;;;19.00;77.20;;;;;;5045131;28;20047;-49
2022/06/30 00:11:45;;;;;;;4.20;3.40;;;18.90;77.20;;;;;;5050751;28;20425;-47
2022/06/30 00:14:10;;;;;;;4.32;3.05;;;18.90;78.00;;;;;;5051605;28;20044;-46
2022/06/30 00:16:38;;;;;;;3.70;2.72;;;18.90;77.70;;;;;;5052982;28;20024;-46
2022/06/30 00:19:04;;;;;;;6.43;3.42;;;18.90;77.60;;;;;;5030646;28;20029;-46
2022/06/30 00:21:29;;;;;;;3.58;3.08;;;18.90;77.00;;;;;;5032239;28;20461;-46
2022/06/30 00:23:57;;;;;;;7.43;3.03;;;18.90;76.30;;;;;;5031553;28;20030;-47
2022/06/30 00:26:23;;;;;;;7.20;3.30;;;18.90;75.70;;;;;;5042318;28;20030;-46
2022/06/30 00:28:49;;;;;;;5.13;2.45;;;18.90;75.00;;;;;;5050578;28;20044;-47
2022/06/30 00:31:14;;;;;;;6.50;2.83;;;18.90;74.60;;;;;;5040264;28;20033;-46
2022/06/30 00:33:40;;;;;;;4.30;2.80;;;19.10;74.00;;;;;;5030415;28;20506;-48
2022/06/30 00:36:08;;;;;;;4.03;2.45;;;19.10;73.60;;;;;;5030744;28;20200;-47
2022/06/30 00:38:38;;;;;;;5.75;2.80;;;19.10;73.40;;;;;;5030351;28;20072;-46
2022/06/30 00:41:03;;;;;;;;;;;19.10;73.00;;;;;;5037912;28;20145;-47
2022/06/30 00:43:40;;;;;;;5.20;2.97;;;19.20;72.10;;;;;;5050402;28;20348;-46
2022/06/30 00:46:08;;;;;;;4.93;2.55;;;19.30;71.90;;;;;;5043506;28;20048;-46
2022/06/30 00:48:36;;;;;;;5.90;2.90;;;19.40;71.60;;;;;;5029995;28;20052;-47
2022/06/30 00:51:05;;;;;;;6.00;2.97;;;19.40;71.40;;;;;;5031634;28;20034;-46
2022/06/30 00:53:40;;;;;;;3.90;2.33;;;19.40;71.50;;;;;;5031051;28;20068;-47
2022/06/30 00:56:08;;;;;;;3.83;2.30;;;19.40;70.70;;;;;;5033585;28;20114;-46
2022/06/30 00:58:44;;;;;;;5.35;2.60;;;19.40;70.80;;;;;;5049728;28;20038;-47
2022/06/30 01:01:16;;;;;;;4.20;2.80;;;19.40;70.60;;;;;;5053819;28;20029;-47
2022/06/30 01:03:43;;;;;;;4.15;2.55;;;19.40;70.10;;;;;;5049024;28;20033;-47
2022/06/30 01:06:10;;;;;;;5.00;3.10;;;19.50;70.10;;;;;;5046071;28;20398;-47
2022/06/30 01:08:38;;;;;;;3.50;2.30;;;19.50;69.90;;;;;;5050724;28;20477;-48
2022/06/30 01:13:49;;;;;;;3.97;2.40;;;19.50;69.90;;;;;;5033086;28;20131;-48
2022/06/30 01:16:15;;;;;;;3.60;2.40;;;19.40;69.60;;;;;;5035306;28;20481;-48
2022/06/30 01:18:41;;;;;;;5.85;2.58;;;19.40;69.40;;;;;;5052202;28;20027;-47
2022/06/30 01:21:06;;;;;;;6.25;2.78;;;19.40;70.10;;;;;;5034496;28;20371;-46
2022/06/30 01:23:32;;;;;;;5.70;2.20;;;19.40;69.80;;;;;;5048171;28;20035;-48
2022/06/30 01:25:58;;;;;;;5.05;2.00;;;19.40;69.70;;;;;;5030066;28;20058;-47
2022/06/30 01:28:26;;;;;;;3.47;2.55;;;19.30;69.90;;;;;;5062139;28;20032;-46
2022/06/30 01:30:51;;;;;;;5.43;2.42;;;19.30;69.80;;;;;;5029188;28;20025;-46
2022/06/30 01:33:17;;;;;;;6.88;2.28;;;19.20;69.90;;;;;;5068516;28;20021;-47
2022/06/30 01:35:43;;;;;;;3.08;2.40;;;19.20;69.30;;;;;;5056106;28;20021;-48
2022/06/30 01:38:08;;;;;;;3.58;2.17;;;19.10;69.60;;;;;;5032636;28;20029;-49
2022/06/30 01:40:35;;;;;;;4.05;2.85;;;19.00;69.50;;;;;;5053420;28;20033;-46
2022/06/30 01:43:05;;;;;;;6.68;2.60;;;19.00;69.90;;;;;;5039156;28;20033;-46
2022/06/30 01:45:31;;;;;;;5.00;3.25;;;18.90;70.00;;;;;;5050137;28;20056;-47
2022/06/30 01:47:56;;;;;;;4.43;2.67;;;18.90;70.20;;;;;;5050304;28;20036;-47
2022/06/30 01:50:29;;;;;;;3.65;2.60;;;18.90;70.60;;;;;;5030633;28;20572;-47
2022/06/30 01:52:57;;;;;;;4.68;2.58;;;18.80;70.50;;;;;;5036265;28;20401;-47
2022/06/30 01:55:23;;;;;;;4.13;2.90;;;18.80;70.70;;;;;;5046735;28;20029;-47
2022/06/30 01:57:49;;;;;;;3.92;2.38;;;18.80;71.00;;;;;;5049618;28;20025;-47
2022/06/30 02:00:18;;;;;;;4.40;2.90;;;18.80;71.00;;;;;;5042303;28;20033;-47
2022/06/30 02:02:48;;;;;;;4.38;2.63;;;18.70;71.60;;;;;;5046359;28;20033;-46
2022/06/30 02:05:17;;;;;;;3.17;2.10;;;18.60;71.00;;;;;;5048923;28;20104;-48
2022/06/30 02:07:43;;;;;;;3.35;2.42;;;18.60;71.20;;;;;;5029667;28;20132;-47
2022/06/30 02:10:14;;;;;;;4.18;2.67;;;18.60;71.80;;;;;;5036728;28;20041;-48
2022/06/30 02:12:48;;;;;;;4.80;2.40;;;18.50;71.80;;;;;;5049330;28;20056;-47
2022/06/30 02:15:32;;;;;;;4.38;2.47;;;18.50;71.70;;;;;;5048678;28;20427;-48
2022/06/30 02:18:02;;;;;;;3.35;2.08;;;18.40;71.30;;;;;;5042027;28;20446;-46
2022/06/30 02:20:27;;;;;;;5.32;2.35;;;18.40;71.50;;;;;;5030130;28;20034;-52
2022/06/30 02:22:56;;;;;;;4.78;2.20;;;18.40;70.60;;;;;;5035456;28;20033;-47
2022/06/30 02:25:23;;;;;;;4.35;2.40;;;18.40;70.60;;;;;;5040589;28;20405;-47
2022/06/30 02:27:51;;;;;;;4.05;2.03;;;18.40;70.40;;;;;;5028756;28;20030;-46
2022/06/30 02:30:17;;;;;;;11.75;2.38;;;18.40;70.20;;;;;;5030175;28;20043;-46
2022/06/30 02:32:46;;;;;;;5.28;2.17;;;18.30;70.00;;;;;;5033741;28;20025;-46
2022/06/30 02:35:13;;;;;;;3.25;2.03;;;18.30;70.20;;;;;;5043897;28;20040;-46
2022/06/30 02:37:39;;;;;;;3.35;2.15;;;18.30;70.00;;;;;;5028122;28;20124;-46
2022/06/30 02:40:06;;;;;;;4.35;3.15;;;18.20;70.50;;;;;;5029476;28;20526;-48
2022/06/30 02:42:32;;;;;;;7.53;2.75;;;18.20;70.40;;;;;;5031341;28;20449;-46
2022/06/30 02:44:57;;;;;;;3.38;2.80;;;18.20;69.80;;;;;;5046877;28;20032;-46
2022/06/30 02:47:36;;;;;;;4.57;2.05;;;18.20;70.30;;;;;;5035263;28;20108;-47
2022/06/30 02:50:04;;;;;;;3.80;2.28;;;18.20;70.50;;;;;;5047660;28;20059;-47
2022/06/30 02:52:32;;;;;;;4.38;2.40;;;18.20;71.40;;;;;;5048637;28;20029;-48
2022/06/30 02:54:58;;;;;;;3.17;2.28;;;18.10;71.00;;;;;;5047734;28;20349;-47
2022/06/30 02:57:24;;;;;;;5.25;2.72;;;18.10;71.00;;;;;;5062559;28;20090;-46
2022/06/30 02:59:50;;;;;;;3.40;2.25;;;18.00;71.70;;;;;;5033604;28;20108;-46
2022/06/30 03:02:15;;;;;;;3.70;2.35;;;18.00;71.90;;;;;;5046437;28;20478;-46
2022/06/30 03:04:41;;;;;;;4.47;2.50;;;18.00;71.60;;;;;;5035827;28;20458;-46
2022/06/30 03:07:07;;;;;;;7.15;2.40;;;17.90;71.90;;;;;;5028655;28;20458;-48
2022/06/30 03:09:34;;;;;;;4.30;2.65;;;17.90;73.00;;;;;;5040471;28;20514;-46
2022/06/30 03:11:59;;;;;;;3.40;2.22;;;17.80;72.90;;;;;;5028126;28;20051;-47
2022/06/30 03:14:27;;;;;;;4.75;2.47;;;17.90;73.00;;;;;;5036586;28;20037;-47
2022/06/30 03:16:53;;;;;;;4.05;2.83;;;17.80;73.40;;;;;;5038611;28;20036;-47
2022/06/30 03:19:19;;;;;;;4.80;2.80;;;17.80;73.60;;;;;;5028913;28;20037;-46
2022/06/30 03:21:45;;;;;;;4.95;2.80;;;17.80;73.30;;;;;;5027513;28;20026;-49
2022/06/30 03:24:11;;;;;;;6.97;2.75;;;17.80;73.80;;;;;;5050499;28;20412;-47
2022/06/30 03:26:36;;;;;;;4.70;3.00;;;17.80;73.70;;;;;;5048629;28;20029;-49
2022/06/30 03:29:03;;;;;;;5.43;2.80;;;17.70;73.80;;;;;;5041659;28;20055;-46
2022/06/30 03:31:29;;;;;;;6.50;3.17;;;17.70;74.30;;;;;;5048567;28;20032;-46
2022/06/30 03:33:55;;;;;;;5.45;3.05;;;17.70;74.60;;;;;;5047058;28;20033;-48
2022/06/30 03:36:20;;;;;;;4.32;3.63;;;17.60;74.60;;;;;;5044408;28;20053;-47
2022/06/30 03:38:46;;;;;;;3.63;2.30;;;17.50;74.80;;;;;;5028697;28;20029;-46
2022/06/30 03:41:13;;;;;;;3.67;3.00;;;17.50;74.50;;;;;;5031666;28;20464;-46
2022/06/30 03:43:39;;;;;;;4.82;3.00;;;17.60;74.90;;;;;;5041801;28;20446;-46
2022/06/30 03:46:07;;;;;;;6.97;2.97;;;17.60;74.70;;;;;;5052061;28;20098;-46
2022/06/30 03:48:35;;;;;;;5.85;3.33;;;17.60;74.30;;;;;;5051767;28;20061;-46
2022/06/30 03:51:02;;;;;;;5.18;2.67;;;17.60;74.30;;;;;;5051520;28;20017;-47
2022/06/30 03:53:28;;;;;;;11.55;3.75;;;17.60;74.10;;;;;;5058320;28;20017;-46
2022/06/30 03:55:53;;;;;;;6.80;2.92;;;17.60;74.10;;;;;;5034064;28;20029;-47
2022/06/30 03:58:19;;;;;;;4.88;3.22;;;17.70;73.90;;;;;;5052121;28;20032;-46
2022/06/30 04:00:45;;;;;;;6.97;3.22;;;17.70;74.00;;;;;;5033490;28;20029;-47
2022/06/30 04:03:11;;;;;;;4.38;2.80;;;17.70;74.20;;;;;;5031992;28;20033;-46
2022/06/30 04:05:38;;;;;;;4.10;2.97;;;17.70;74.20;;;;;;5048751;28;20043;-46
2022/06/30 04:08:04;;;;;;;7.25;3.28;;;17.70;74.90;;;;;;5042085;28;20021;-46
2022/06/30 04:10:32;;;;;;;7.30;2.55;;;17.70;74.90;;;;;;5032075;28;20024;-47
2022/06/30 04:12:57;;;;;;;4.10;2.83;;;17.70;75.60;;;;;;5041371;28;20037;-46
2022/06/30 04:15:23;;;;;;;6.25;3.30;;;17.70;75.70;;;;;;5050815;28;20469;-46
2022/06/30 04:17:51;;;;;;;5.13;3.22;;;17.70;75.60;;;;;;5053158;28;20075;-47
2022/06/30 04:20:17;;;;;;;6.05;3.10;;;17.70;75.60;;;;;;5047173;28;20029;-47
2022/06/30 04:22:44;;;;;;;4.30;3.20;;;17.70;75.40;;;;;;5032121;28;20025;-48
2022/06/30 04:25:10;;;;;;;4.60;3.10;;;17.70;75.20;;;;;;5031791;28;20427;-46
2022/06/30 04:27:42;;;;;;;7.70;2.75;;;17.70;75.20;;;;;;5032617;28;20167;-48
2022/06/30 04:30:10;;;;;;;7.18;3.67;;;17.80;75.30;;;;;;5031418;28;20538;-46
2022/06/30 04:32:40;;;;;;;5.22;3.33;;;17.90;75.40;;;;;;5032191;28;20037;-46
2022/06/30 04:35:12;;;;;;;6.32;3.35;;;17.90;74.90;;;;;;5062954;28;20029;-48
2022/06/30 04:37:43;;;;;;;5.70;3.00;;;17.90;75.20;;;;;;5032151;28;20091;-48
2022/06/30 04:42:53;;;;;;;5.38;3.35;;;18.00;74.90;;;;;;5032664;28;20508;-49
2022/06/30 04:45:19;;;;;;;4.10;3.15;;;18.10;74.70;;;;;;5033975;28;20060;-48
2022/06/30 04:47:45;;;;;;;5.43;3.15;;;18.10;74.80;;;;;;5051359;28;20052;-51
2022/06/30 04:50:11;;;;;;;5.65;3.22;;;18.10;74.30;;;;;;5049913;28;20025;-47
2022/06/30 04:52:37;;;;;;;6.65;3.58;;;18.10;74.50;;;;;;5051448;28;20028;-46
2022/06/30 04:55:03;;;;;;;4.28;3.20;;;18.20;74.20;;;;;;5050774;28;20029;-46
2022/06/30 04:57:28;;;;;;;6.88;3.10;;;18.20;74.30;;;;;;5046436;28;20115;-49
2022/06/30 04:59:54;;;;;;;4.47;3.20;;;18.20;73.90;;;;;;5047375;28;20154;-46
2022/06/30 05:02:19;;;;;;;11.10;4.15;;;18.30;74.20;;;;;;5046887;28;20033;-46
2022/06/30 05:04:45;;;;;;;8.45;3.60;;;18.40;74.10;;;;;;5049661;28;20029;-47
2022/06/30 05:07:11;;;;;;;6.30;3.53;;;18.40;74.50;;;;;;5044491;28;20082;-50
2022/06/30 05:09:37;;;;;;;6.40;4.18;;;18.40;74.50;;;;;;5043788;28;20521;-46
2022/06/30 05:12:03;;;;;;;3.92;3.10;;;18.40;74.60;;;;;;5032836;28;20021;-48
2022/06/30 05:14:29;;;;;;;4.28;3.30;;;18.50;74.60;;;;;;5043413;28;20106;-48
2022/06/30 05:16:55;;;;;;;6.38;3.60;;;18.50;74.60;;;;;;5046362;28;20043;-48
2022/06/30 05:19:20;;;;;;;9.40;3.92;;;18.60;74.80;;;;;;5049403;28;20039;-48
2022/06/30 05:21:46;;;;;;;7.15;3.92;;;18.60;74.60;;;;;;5049393;28;20021;-48
2022/06/30 05:26:56;;;;;;;5.95;3.60;;;18.80;74.50;;;;;;5030003;28;20358;-46
2022/06/30 05:29:21;;;;;;;7.30;3.30;;;18.90;74.40;;;;;;5030321;28;20047;-46
2022/06/30 05:31:47;;;;;;;5.10;3.78;;;18.90;74.30;;;;;;5042569;28;20041;-47
2022/06/30 05:34:13;;;;;;;5.05;3.15;;;19.00;74.00;;;;;;5047701;28;20044;-46
2022/06/30 05:36:38;;;;;;;6.75;3.58;;;19.20;73.40;;;;;;5046699;28;20121;-46
2022/06/30 05:39:04;;;;;;;5.75;3.15;;;19.40;73.00;;;;;;5053580;28;20347;-48
2022/06/30 05:41:29;;;;;;;5.45;3.50;;;19.50;72.10;;;;;;5048645;28;20053;-48
2022/06/30 05:43:55;;;;;;;6.80;3.13;;;19.70;71.50;;;;;;5047320;28;20438;-47
2022/06/30 05:46:23;;;;;;;5.07;3.33;;;20.00;71.20;;;;;;5049010;28;20065;-50
2022/06/30 05:48:49;;;;;;;5.63;3.05;;;20.30;70.20;;;;;;5046526;28;20037;-48
2022/06/30 05:51:14;;;;;;;4.95;2.92;;;20.60;69.90;;;;;;5047943;28;20025;-48
2022/06/30 05:53:40;;;;;;;5.10;3.30;;;20.80;67.50;;;;;;5046661;28;20052;-46
2022/06/30 05:56:05;;;;;;;6.55;2.60;;;20.90;66.80;;;;;;5047278;28;20056;-47
2022/06/30 05:58:31;;;;;;;8.00;3.08;;;21.10;66.80;;;;;;5048846;28;20086;-47
2022/06/30 06:00:57;;;;;;;5.53;3.20;;;21.40;66.10;;;;;;5048559;28;20043;-47
2022/06/30 06:03:22;;;;;;;4.65;2.97;;;21.50;64.90;;;;;;5045368;28;20411;-46
2022/06/30 06:05:50;;;;;;;4.97;2.92;;;21.70;65.20;;;;;;5048557;28;20036;-48
2022/06/30 06:08:16;;;;;;;6.00;3.30;;;22.10;64.50;;;;;;5049391;28;20028;-47
2022/06/30 06:10:41;;;;;;;5.10;3.20;;;22.20;64.30;;;;;;5030513;28;20028;-48
2022/06/30 06:13:09;;;;;;;6.18;3.17;;;22.40;63.40;;;;;;5047130;28;20078;-48
2022/06/30 06:15:35;;;;;;;5.80;2.92;;;22.40;62.60;;;;;;5048815;28;20028;-46
2022/06/30 06:18:01;;;;;;;5.95;3.15;;;22.20;63.00;;;;;;5037527;28;20037;-48
2022/06/30 06:20:27;;;;;;;5.88;3.78;;;22.00;64.10;;;;;;5029061;28;20045;-46
2022/06/30 06:22:52;;;;;;;6.68;3.78;;;21.90;65.30;;;;;;5049869;28;20041;-47
2022/06/30 06:25:19;;;;;;;5.47;3.05;;;21.80;66.30;;;;;;5047698;28;20028;-47
2022/06/30 06:30:40;;;;;;;5.47;3.53;;;22.20;66.00;;;;;;5020912;28;20033;-47
2022/06/30 06:33:09;;;;;;;5.55;2.90;;;22.60;64.50;;;;;;5042448;28;20159;-47
2022/06/30 06:35:34;;;;;;;6.55;3.25;;;22.70;63.90;;;;;;5051926;28;20021;-48
2022/06/30 06:38:01;;;;;;;4.60;2.92;;;22.90;63.50;;;;;;5054309;28;20032;-48
2022/06/30 06:40:27;;;;;;;5.32;3.70;;;23.10;62.80;;;;;;5047472;28;20055;-48
2022/06/30 06:42:53;;;;;;;5.00;3.40;;;22.90;63.10;;;;;;5045087;28;20477;-48
2022/06/30 06:45:20;;;;;;;5.50;3.50;;;23.10;63.30;;;;;;5028936;28;20112;-48
2022/06/30 06:47:47;;;;;;;6.03;3.15;;;23.20;62.60;;;;;;5062668;28;20037;-48
2022/06/30 06:50:13;;;;;;;8.80;3.30;;;23.20;62.00;;;;;;5047681;28;20027;-48
2022/06/30 06:52:38;;;;;;;6.13;3.25;;;23.10;63.20;;;;;;5045241;28;20418;-48
2022/06/30 06:55:05;;;;;;;3.60;2.67;;;22.90;62.90;;;;;;5048387;28;20060;-50
2022/06/30 06:57:36;;;;;;;5.85;2.88;;;22.50;63.00;;;;;;5045690;28;20126;-49
2022/06/30 07:00:09;;;;;;;5.60;2.97;;;22.30;63.80;;;;;;5041079;28;20021;-49
2022/06/30 07:02:38;;;;;;;6.47;3.00;;;22.30;64.50;;;;;;5046151;28;20419;-49
2022/06/30 07:05:05;;;;;;;3.95;2.60;;;22.40;64.60;;;;;;5060481;28;20024;-47
2022/06/30 07:07:34;;;;;;;4.00;2.67;;;22.70;64.60;;;;;;5049473;28;20148;-53
2022/06/30 07:09:59;;;;;;;5.05;2.75;;;23.00;65.40;;;;;;5043657;28;20013;-48
2022/06/30 07:12:25;;;;;;;3.90;2.50;;;23.40;64.10;;;;;;5032279;28;20040;-51
2022/06/30 07:14:50;;;;;;;5.07;2.50;;;23.60;62.70;;;;;;5048441;28;20334;-48
2022/06/30 07:17:16;;;;;;;3.65;2.80;;;23.80;63.20;;;;;;5046043;28;20033;-47
2022/06/30 07:19:44;;;;;;;6.20;2.65;;;24.20;63.30;;;;;;5048229;28;20028;-48
2022/06/30 07:22:10;;;;;;;4.28;3.08;;;24.70;60.00;;;;;;5057339;28;20043;-48
2022/06/30 07:24:35;;;;;;;5.32;2.65;;;24.90;60.80;;;;;;5051405;28;20037;-47
2022/06/30 07:27:01;;;;;;;6.00;2.30;;;25.30;59.00;;;;;;5041758;28;20032;-47
2022/06/30 07:29:27;;;;;;;10.32;2.75;;;26.10;57.70;;;;;;5041511;28;20024;-48
2022/06/30 07:31:53;;;;;;;5.32;2.88;;;26.00;56.80;;;;;;5039536;28;20044;-48
2022/06/30 07:34:22;;;;;;;3.92;2.80;;;25.90;57.30;;;;;;5042869;28;20358;-50
2022/06/30 07:36:47;;;;;;;4.68;2.67;;;25.80;56.30;;;;;;5051679;28;20131;-48
2022/06/30 07:39:13;;;;;;;4.55;2.35;;;26.20;56.50;;;;;;5049795;28;20103;-47
2022/06/30 07:41:41;;;;;;;4.55;2.65;;;26.80;55.80;;;;;;5049833;28;20049;-48
2022/06/30 07:44:09;;;;;;;4.28;2.10;;;27.10;54.40;;;;;;5050275;28;20069;-48
2022/06/30 07:46:37;;;;;;;4.50;2.05;;;27.60;53.50;;;;;;5051887;28;20024;-47
2022/06/30 07:49:05;;;;;;;4.57;2.50;;;28.10;52.50;;;;;;5049718;28;20099;-49
2022/06/30 07:51:31;;;;;;;5.13;2.50;;;28.40;50.90;;;;;;5052365;28;20545;-48
2022/06/30 07:53:59;;;;;;;6.47;2.63;;;28.50;50.20;;;;;;5049416;28;20053;-47
2022/06/30 07:56:24;;;;;;;4.65;2.42;;;28.40;49.50;;;;;;5048974;28;20112;-49
2022/06/30 07:58:50;;;;;;;4.05;2.00;;;28.70;51.60;;;;;;5045692;28;20449;-47
2022/06/30 08:01:19;;;;;;;5.78;2.67;;;28.90;49.90;;;;;;5045743;28;20040;-48
2022/06/30 08:03:48;;;;;;;5.18;2.47;;;29.30;49.50;;;;;;5048763;28;20021;-49
2022/06/30 08:06:16;;;;;;;7.32;2.20;;;29.70;49.20;;;;;;5046747;28;20395;-47
2022/06/30 08:08:42;;;;;;;6.55;2.60;;;29.90;48.30;;;;;;5050092;28;20017;-47
2022/06/30 08:11:09;;;;;;;3.55;2.22;;;29.80;46.20;;;;;;5048646;28;20029;-47
2022/06/30 08:13:36;;;;;;;3.42;1.85;;;30.00;46.90;;;;;;5048210;28;20025;-47
2022/06/30 08:16:03;;;;;;;3.40;2.20;;;30.10;46.10;;;;;;5049690;28;20036;-47
2022/06/30 08:18:31;;;;;;;5.10;2.63;;;30.40;46.80;;;;;;5050417;28;20036;-48
2022/06/30 08:20:57;;;;;;;5.25;2.20;;;30.30;48.30;;;;;;5050028;28;20028;-49
2022/06/30 08:23:25;;;;;;;5.15;2.17;;;30.70;46.60;;;;;;5045732;28;20377;-47
2022/06/30 08:25:51;;;;;;;4.07;2.25;;;30.60;46.90;;;;;;5052410;28;20064;-49
2022/06/30 08:28:18;;;;;;;5.55;2.50;;;30.30;46.10;;;;;;5045773;28;20476;-50
2022/06/30 08:30:46;;;;;;;4.57;2.63;;;30.40;45.90;;;;;;5034564;28;20346;-47
2022/06/30 08:33:11;;;;;;;5.30;2.67;;;30.40;46.50;;;;;;5050777;28;20029;-48
2022/06/30 08:35:39;;;;;;;6.25;2.90;;;30.10;49.20;;;;;;5059997;28;20086;-49
2022/06/30 08:38:05;;;;;;;7.00;2.60;;;30.50;48.20;;;;;;5051507;28;20154;-47
2022/06/30 08:43:18;;;;;;;9.45;3.42;;;30.40;46.70;;;;;;5037945;28;20032;-50
2022/06/30 08:45:48;;;;;;;6.30;2.78;;;30.40;47.50;;;;;;5049441;28;20089;-49
2022/06/30 08:48:16;;;;;;;4.30;2.38;;;30.40;48.10;;;;;;5046806;28;20393;-48
2022/06/30 08:50:43;;;;;;;3.75;2.45;;;30.40;48.00;;;;;;5049366;28;20025;-49
2022/06/30 08:53:15;;;;;;;6.57;2.72;;;30.50;48.10;;;;;;5045949;28;20167;-50
2022/06/30 08:55:41;;;;;;;3.38;2.30;;;30.50;49.30;;;;;;5049429;28;20110;-52
2022/06/30 08:58:11;;;;;;;6.32;2.50;;;30.50;49.50;;;;;;5044585;28;20091;-49
2022/06/30 09:00:38;;;;;;;6.57;3.28;;;30.90;48.00;;;;;;5053259;28;20028;-51
2022/06/30 09:03:05;;;;;;;9.63;2.97;;;30.60;48.30;;;;;;5035121;28;20120;-51
2022/06/30 09:05:31;;;;;;;4.88;2.25;;;30.50;48.70;;;;;;5041149;28;20025;-47
2022/06/30 09:07:59;;;;;;;4.93;2.40;;;30.60;48.20;;;;;;5042238;28;20029;-52
2022/06/30 09:10:28;;;;;;;6.00;2.47;;;30.40;47.20;;;;;;5080077;28;20495;-49
2022/06/30 09:13:03;;;;;;;;;;;30.60;49.40;;;;;;5048135;28;20024;-47
2022/06/30 09:15:39;;;;;;;4.10;2.78;;;30.60;49.50;;;;;;5078514;28;20486;-47
2022/06/30 09:18:07;;;;;;;4.10;2.58;;;30.50;48.70;;;;;;5049878;28;20033;-47
2022/06/30 09:20:33;;;;;;;3.13;2.22;;;30.60;50.60;;;;;;5036088;28;20029;-47
2022/06/30 09:22:59;;;;;;;4.47;2.60;;;30.60;49.90;;;;;;5042071;28;20128;-47
2022/06/30 09:25:30;;;;;;;5.28;2.28;;;30.70;49.20;;;;;;5046800;28;20021;-48
2022/06/30 09:27:56;;;;;;;5.57;2.67;;;30.30;49.00;;;;;;5036328;28;20021;-49
2022/06/30 09:30:24;;;;;;;11.48;2.88;;;30.40;49.10;;;;;;5043050;28;20386;-49
2022/06/30 09:32:54;;;;;;;9.95;3.05;;;30.30;48.30;;;;;;5047408;28;20163;-51
2022/06/30 09:35:22;;;;;;;6.55;2.92;;;30.10;48.20;;;;;;5048558;28;20032;-48
2022/06/30 09:38:04;;;;;;;5.35;2.20;;;30.20;47.60;;;;;;5049454;28;20111;-48
2022/06/30 09:40:32;;;;;;;8.50;3.15;;;30.20;48.60;;;;;;5052063;28;20041;-49
2022/06/30 09:42:58;;;;;;;4.43;2.17;;;30.30;48.70;;;;;;5049557;28;20029;-48
2022/06/30 09:45:33;;;;;;;3.90;2.30;;;30.30;49.30;;;;;;5048721;28;20029;-48
2022/06/30 09:47:58;;;;;;;3.85;2.65;;;30.20;51.40;;;;;;5040014;28;20048;-47
2022/06/30 09:50:27;;;;;;;4.28;2.75;;;29.90;50.20;;;;;;5044431;28;20021;-48
2022/06/30 09:53:17;;;;;;;5.78;2.88;;;29.90;50.60;;;;;;5037266;28;20028;-47
2022/06/30 09:55:47;;;;;;;4.03;2.60;;;30.00;50.40;;;;;;5038166;28;20736;-47
2022/06/30 09:58:39;;;;;;;4.53;2.70;;;29.80;52.00;;;;;;5047204;28;20036;-48
2022/06/30 10:01:05;;;;;;;3.75;2.30;;;29.90;49.00;;;;;;5034588;28;20370;-47
2022/06/30 10:03:30;;;;;;;5.22;2.72;;;29.90;49.50;;;;;;5048967;28;20479;-47
2022/06/30 10:06:14;;;;;;;3.60;2.47;;;29.50;47.50;;;;;;5050915;28;20029;-49
2022/06/30 10:08:40;;;;;;;2.83;2.13;;;29.60;48.50;;;;;;5043842;28;20040;-47
2022/06/30 10:11:07;;;;;;;4.47;2.17;;;29.60;48.30;;;;;;5037030;28;20040;-52
2022/06/30 10:13:38;;;;;;;4.85;2.65;;;29.60;50.80;;;;;;5041326;28;20025;-47
2022/06/30 10:16:07;;;;;;;4.93;2.60;;;29.80;53.50;;;;;;5047978;28;20143;-48
2022/06/30 10:18:36;;;;;;;3.95;2.35;;;29.70;46.90;;;;;;5048402;28;20457;-47
2022/06/30 10:21:02;;;;;;;;;;;29.80;50.20;;;;;;5040230;28;20086;-48
2022/06/30 10:23:31;;;;;;;5.82;2.28;;;29.50;50.40;;;;;;5049022;28;19913;-47
2022/06/30 10:25:59;;;;;;;5.85;2.38;;;29.90;51.60;;;;;;5047544;28;20422;-49
2022/06/30 10:28:29;;;;;;;4.20;2.03;;;29.80;49.70;;;;;;5048723;28;20044;-49
2022/06/30 10:31:33;;;;;;;3.92;2.35;;;29.80;51.00;;;;;;5045261;28;20279;-47
2022/06/30 10:34:26;;;;;;;4.40;2.30;;;29.90;49.70;;;;;;5044550;28;20044;-47
2022/06/30 10:37:04;;;;;;;4.65;2.17;;;29.80;49.30;;;;;;5035838;28;20064;-47
2022/06/30 10:39:46;;;;;;;5.40;2.58;;;29.60;51.70;;;;;;5042865;28;20025;-49
2022/06/30 10:43:03;;;;;;;5.30;2.60;;;29.60;50.00;;;;;;5046056;28;20045;-47
2022/06/30 10:45:29;;;;;;;4.68;2.25;;;29.50;49.80;;;;;;4998396;28;20049;-47
2022/06/30 10:47:58;;;;;;;3.70;2.60;;;29.50;51.50;;;;;;5047859;28;20039;-49
2022/06/30 10:50:37;;;;;;;5.53;1.92;;;29.40;50.70;;;;;;5046930;28;20032;-51
2022/06/30 10:53:04;;;;;;;4.93;2.65;;;29.40;50.10;;;;;;5042079;28;20028;-48
2022/06/30 10:55:50;;;;;;;5.35;2.25;;;29.50;47.70;;;;;;5047341;28;20048;-47
2022/06/30 10:58:16;;;;;;;3.90;2.28;;;29.50;49.40;;;;;;5039685;28;20066;-50
2022/06/30 11:00:42;;;;;;;3.95;2.45;;;29.60;49.10;;;;;;5045719;28;20396;-48
2022/06/30 11:03:08;;;;;;;3.53;2.20;;;29.70;48.70;;;;;;5046863;28;20032;-52
2022/06/30 11:05:48;;;;;;;3.20;2.38;;;29.60;49.80;;;;;;5040197;28;20442;-50
2022/06/30 11:08:48;;;;;;;15.43;4.40;;;29.70;47.70;;;;;;5042619;28;20033;-49
2022/06/30 11:11:22;;;;;;;5.28;2.40;;;29.40;48.90;;;;;;5039104;28;20362;-47
2022/06/30 11:14:11;;;;;;;4.97;2.53;;;29.70;51.00;;;;;;5043419;28;20132;-48
2022/06/30 11:16:39;;;;;;;;;;;29.70;49.40;;;;;;5045427;28;20021;-49
2022/06/30 11:19:13;;;;;;;5.22;2.58;;;29.80;46.60;;;;;;5051466;28;20338;-48
2022/06/30 11:21:43;;;;;;;4.57;2.60;;;29.50;47.70;;;;;;5047853;28;20052;-48
2022/06/30 11:24:10;;;;;;;5.00;2.42;;;29.50;48.30;;;;;;5045922;28;20033;-48
2022/06/30 11:29:23;;;;;;;6.55;2.55;;;29.60;52.70;;;;;;5041459;28;20120;-47
2022/06/30 11:31:50;;;;;;;5.22;2.70;;;29.40;52.00;;;;;;5040018;28;20454;-50
2022/06/30 11:34:20;;;;;;;7.05;3.20;;;29.00;54.80;;;;;;5046572;28;20025;-47
2022/06/30 11:36:45;;;;;;;;;;;29.10;52.90;;;;;;5037695;28;20116;-49
2022/06/30 11:39:21;;;;;;;5.00;2.72;;;29.20;56.30;;;;;;5048090;28;20011;-47
2022/06/30 11:41:55;;;;;;;4.35;2.65;;;29.40;50.20;;;;;;5045447;28;20049;-51
2022/06/30 11:44:23;;;;;;;4.25;2.45;;;29.40;49.50;;;;;;5046566;28;20401;-52
2022/06/30 11:47:05;;;;;;;7.75;3.00;;;29.40;53.20;;;;;;5047348;28;20021;-49
2022/06/30 11:49:45;;;;;;;5.90;2.75;;;29.60;52.80;;;;;;5040430;28;20039;-50
2022/06/30 11:52:22;;;;;;;4.65;3.08;;;29.30;51.50;;;;;;5034117;28;20047;-49
2022/06/30 11:54:56;;;;;;;5.22;2.53;;;29.00;54.10;;;;;;5031828;28;20048;-47
2022/06/30 11:57:30;;;;;;;5.72;2.28;;;29.00;50.90;;;;;;5044565;28;20025;-48
2022/06/30 12:00:03;;;;;;;5.15;2.90;;;29.10;52.80;;;;;;5047539;28;20052;-49
2022/06/30 12:02:30;;;;;;;3.63;2.80;;;29.00;52.90;;;;;;5048937;28;20047;-51
2022/06/30 12:04:58;;;;;;;4.47;2.72;;;28.90;55.10;;;;;;5054569;28;20048;-48
2022/06/30 12:07:25;;;;;;;5.47;3.05;;;29.00;57.20;;;;;;5050007;28;20029;-49
2022/06/30 12:09:54;;;;;;;6.47;3.05;;;28.90;57.90;;;;;;5049956;28;20037;-48
2022/06/30 12:12:32;;;;;;;6.63;2.30;;;28.80;54.70;;;;;;5042356;28;20086;-47
2022/06/30 12:15:04;;;;;;;5.72;2.80;;;28.40;56.70;;;;;;5050036;28;20044;-48
2022/06/30 12:17:35;;;;;;;4.65;2.90;;;28.10;54.60;;;;;;5049021;28;20040;-47
2022/06/30 12:20:06;;;;;;;8.77;2.95;;;28.10;56.70;;;;;;5050879;28;20100;-47
2022/06/30 12:22:32;;;;;;;4.85;3.20;;;27.90;57.00;;;;;;5045032;28;20044;-50
2022/06/30 12:25:05;;;;;;;6.53;3.10;;;27.90;56.70;;;;;;5050837;28;20158;-50
2022/06/30 12:27:46;;;;;;;5.78;2.83;;;27.70;55.10;;;;;;5052757;28;20024;-52
2022/06/30 12:30:15;;;;;;;4.25;3.13;;;27.60;57.70;;;;;;5055351;28;20028;-48
2022/06/30 12:32:41;;;;;;;4.68;3.10;;;27.40;55.60;;;;;;5050037;28;20036;-47
2022/06/30 12:35:14;;;;;;;3.80;2.78;;;27.40;56.90;;;;;;5042901;28;20102;-52
2022/06/30 12:37:43;;;;;;;4.65;3.10;;;27.40;58.50;;;;;;5047308;28;20029;-49
2022/06/30 12:40:20;;;;;;;5.50;3.30;;;27.40;57.90;;;;;;5046524;28;20057;-48
2022/06/30 12:42:54;;;;;;;5.10;3.08;;;27.50;57.70;;;;;;5051083;28;20032;-49
2022/06/30 12:45:35;;;;;;;6.20;3.08;;;27.50;56.80;;;;;;5045121;28;20117;-47
2022/06/30 12:48:04;;;;;;;4.18;2.80;;;27.50;57.60;;;;;;5049350;28;20024;-47
2022/06/30 12:50:34;;;;;;;4.18;2.72;;;27.50;54.40;;;;;;5040617;28;20450;-48
2022/06/30 12:53:15;;;;;;;6.32;3.17;;;27.50;54.60;;;;;;5049610;28;20063;-48
2022/06/30 12:56:01;;;;;;;5.22;2.97;;;27.40;58.80;;;;;;5049206;28;20386;-48
2022/06/30 12:58:44;;;;;;;4.85;2.90;;;27.40;58.30;;;;;;5048066;28;20037;-47
2022/06/30 13:01:15;;;;;;;8.45;3.80;;;27.40;57.10;;;;;;5044626;28;20052;-48
2022/06/30 13:03:49;;;;;;;4.28;3.47;;;27.20;55.50;;;;;;5053234;28;20140;-46
2022/06/30 13:06:15;;;;;;;4.13;2.95;;;27.20;57.90;;;;;;5045877;28;20096;-47
2022/06/30 13:08:43;;;;;;;4.47;3.35;;;27.10;58.70;;;;;;5051709;28;20115;-47
2022/06/30 13:11:08;;;;;;;4.72;3.03;;;27.10;58.80;;;;;;5051092;28;20024;-47
2022/06/30 13:13:34;;;;;;;6.95;3.65;;;27.00;56.60;;;;;;5050361;28;20021;-48